sensor_id;sensor_type;location;lat;lon;timestamp;P1;durP1;ratioP1;P2;durP2;ratioP2
73776;SDS011;62088;50.240;2.696;2023-04-22T00:00:15;16.67;;;14.05;;
73776;SDS011;62088;50.240;2.696;2023-04-22T00:02:42;13.27;;;9.52;;
73776;SDS011;62088;50.240;2.696;2023-04-22T00:05:10;15.27;;;13.63;;
73776;SDS011;62088;50.240;2.696;2023-04-22T00:07:42;11.40;;;8.35;;
73776;SDS011;62088;50.240;2.696;2023-04-22T00:10:09;11.55;;;9.13;;
73776;SDS011;62088;50.240;2.696;2023-04-22T00:12:37;15.13;;;13.32;;
73776;SDS011;62088;50.240;2.696;2023-04-22T00:15:04;14.32;;;12.82;;
73776;SDS011;62088;50.240;2.696;2023-04-22T00:17:32;12.00;;;7.35;;
73776;SDS011;62088;50.240;2.696;2023-04-22T00:19:59;14.07;;;12.57;;
73776;SDS011;62088;50.240;2.696;2023-04-22T00:22:26;15.55;;;13.35;;
73776;SDS011;62088;50.240;2.696;2023-04-22T00:24:53;15.30;;;13.70;;
73776;SDS011;62088;50.240;2.696;2023-04-22T00:27:21;11.13;;;6.82;;
73776;SDS011;62088;50.240;2.696;2023-04-22T00:29:47;14.15;;;12.68;;
73776;SDS011;62088;50.240;2.696;2023-04-22T00:32:14;14.48;;;11.50;;
73776;SDS011;62088;50.240;2.696;2023-04-22T00:34:41;15.88;;;13.80;;
73776;SDS011;62088;50.240;2.696;2023-04-22T00:37:09;15.52;;;13.18;;
73776;SDS011;62088;50.240;2.696;2023-04-22T00:39:36;17.83;;;15.10;;
73776;SDS011;62088;50.240;2.696;2023-04-22T00:42:05;15.93;;;14.05;;
73776;SDS011;62088;50.240;2.696;2023-04-22T00:44:34;14.55;;;8.80;;
73776;SDS011;62088;50.240;2.696;2023-04-22T00:47:02;15.52;;;11.80;;
73776;SDS011;62088;50.240;2.696;2023-04-22T00:49:30;20.48;;;16.92;;
73776;SDS011;62088;50.240;2.696;2023-04-22T00:51:59;20.83;;;18.25;;
73776;SDS011;62088;50.240;2.696;2023-04-22T00:54:26;21.83;;;18.83;;
73776;SDS011;62088;50.240;2.696;2023-04-22T00:56:54;22.60;;;18.67;;
73776;SDS011;62088;50.240;2.696;2023-04-22T00:59:24;22.08;;;19.33;;
73776;SDS011;62088;50.240;2.696;2023-04-22T01:01:52;21.58;;;17.67;;
73776;SDS011;62088;50.240;2.696;2023-04-22T01:04:20;22.60;;;18.73;;
73776;SDS011;62088;50.240;2.696;2023-04-22T01:06:48;19.73;;;16.25;;
73776;SDS011;62088;50.240;2.696;2023-04-22T01:09:19;16.27;;;9.70;;
73776;SDS011;62088;50.240;2.696;2023-04-22T01:11:47;21.13;;;17.02;;
73776;SDS011;62088;50.240;2.696;2023-04-22T01:14:14;17.58;;;12.32;;
73776;SDS011;62088;50.240;2.696;2023-04-22T01:16:41;14.77;;;10.70;;
73776;SDS011;62088;50.240;2.696;2023-04-22T01:19:10;17.13;;;10.75;;
73776;SDS011;62088;50.240;2.696;2023-04-22T01:21:37;17.50;;;14.98;;
73776;SDS011;62088;50.240;2.696;2023-04-22T01:24:06;19.38;;;16.30;;
73776;SDS011;62088;50.240;2.696;2023-04-22T01:26:34;12.75;;;9.05;;
73776;SDS011;62088;50.240;2.696;2023-04-22T01:29:02;15.65;;;10.60;;
73776;SDS011;62088;50.240;2.696;2023-04-22T01:31:30;13.40;;;8.90;;
73776;SDS011;62088;50.240;2.696;2023-04-22T01:33:58;13.23;;;9.75;;
73776;SDS011;62088;50.240;2.696;2023-04-22T01:36:25;18.67;;;15.77;;
73776;SDS011;62088;50.240;2.696;2023-04-22T01:38:52;13.95;;;9.43;;
73776;SDS011;62088;50.240;2.696;2023-04-22T01:41:20;13.02;;;9.80;;
73776;SDS011;62088;50.240;2.696;2023-04-22T01:43:47;14.50;;;10.32;;
73776;SDS011;62088;50.240;2.696;2023-04-22T01:46:15;17.58;;;15.52;;
73776;SDS011;62088;50.240;2.696;2023-04-22T01:48:43;13.98;;;10.65;;
73776;SDS011;62088;50.240;2.696;2023-04-22T01:51:16;13.05;;;8.80;;
73776;SDS011;62088;50.240;2.696;2023-04-22T01:53:46;17.88;;;15.60;;
73776;SDS011;62088;50.240;2.696;2023-04-22T01:56:14;13.38;;;9.18;;
73776;SDS011;62088;50.240;2.696;2023-04-22T01:58:42;14.75;;;8.60;;
73776;SDS011;62088;50.240;2.696;2023-04-22T02:01:10;16.02;;;13.43;;
73776;SDS011;62088;50.240;2.696;2023-04-22T02:03:38;13.13;;;9.65;;
73776;SDS011;62088;50.240;2.696;2023-04-22T02:06:05;17.13;;;14.82;;
73776;SDS011;62088;50.240;2.696;2023-04-22T02:08:33;16.10;;;14.40;;
73776;SDS011;62088;50.240;2.696;2023-04-22T02:11:00;12.77;;;9.80;;
73776;SDS011;62088;50.240;2.696;2023-04-22T02:13:37;16.35;;;14.40;;
73776;SDS011;62088;50.240;2.696;2023-04-22T02:16:05;13.20;;;9.93;;
73776;SDS011;62088;50.240;2.696;2023-04-22T02:18:32;13.13;;;8.02;;
73776;SDS011;62088;50.240;2.696;2023-04-22T02:21:00;16.38;;;14.40;;
73776;SDS011;62088;50.240;2.696;2023-04-22T02:23:27;14.60;;;9.73;;
73776;SDS011;62088;50.240;2.696;2023-04-22T02:25:54;20.35;;;8.57;;
73776;SDS011;62088;50.240;2.696;2023-04-22T02:28:21;11.05;;;7.95;;
73776;SDS011;62088;50.240;2.696;2023-04-22T02:30:48;13.13;;;9.65;;
73776;SDS011;62088;50.240;2.696;2023-04-22T02:33:15;11.45;;;8.85;;
73776;SDS011;62088;50.240;2.696;2023-04-22T02:35:42;11.98;;;9.23;;
73776;SDS011;62088;50.240;2.696;2023-04-22T02:38:14;11.00;;;7.43;;
73776;SDS011;62088;50.240;2.696;2023-04-22T02:40:41;17.00;;;14.25;;
73776;SDS011;62088;50.240;2.696;2023-04-22T02:43:08;13.50;;;9.23;;
73776;SDS011;62088;50.240;2.696;2023-04-22T02:45:35;15.93;;;13.00;;
73776;SDS011;62088;50.240;2.696;2023-04-22T02:48:03;12.25;;;8.90;;
73776;SDS011;62088;50.240;2.696;2023-04-22T02:50:30;15.68;;;10.63;;
73776;SDS011;62088;50.240;2.696;2023-04-22T02:52:57;14.32;;;10.00;;
73776;SDS011;62088;50.240;2.696;2023-04-22T02:55:24;12.30;;;7.68;;
73776;SDS011;62088;50.240;2.696;2023-04-22T02:57:51;12.55;;;8.38;;
73776;SDS011;62088;50.240;2.696;2023-04-22T03:00:18;14.18;;;11.38;;
73776;SDS011;62088;50.240;2.696;2023-04-22T03:02:45;15.18;;;9.48;;
73776;SDS011;62088;50.240;2.696;2023-04-22T03:05:13;11.60;;;8.48;;
73776;SDS011;62088;50.240;2.696;2023-04-22T03:07:41;12.77;;;8.23;;
73776;SDS011;62088;50.240;2.696;2023-04-22T03:10:08;12.45;;;8.52;;
73776;SDS011;62088;50.240;2.696;2023-04-22T03:12:35;14.77;;;7.72;;
73776;SDS011;62088;50.240;2.696;2023-04-22T03:15:03;16.15;;;13.60;;
73776;SDS011;62088;50.240;2.696;2023-04-22T03:17:30;15.38;;;9.35;;
73776;SDS011;62088;50.240;2.696;2023-04-22T03:20:00;12.18;;;8.65;;
73776;SDS011;62088;50.240;2.696;2023-04-22T03:22:27;14.38;;;10.45;;
73776;SDS011;62088;50.240;2.696;2023-04-22T03:24:57;15.93;;;11.60;;
73776;SDS011;62088;50.240;2.696;2023-04-22T03:27:26;14.65;;;9.32;;
73776;SDS011;62088;50.240;2.696;2023-04-22T03:29:53;13.02;;;8.88;;
73776;SDS011;62088;50.240;2.696;2023-04-22T03:32:20;14.27;;;8.93;;
73776;SDS011;62088;50.240;2.696;2023-04-22T03:34:57;21.25;;;17.08;;
73776;SDS011;62088;50.240;2.696;2023-04-22T03:37:25;17.10;;;10.48;;
73776;SDS011;62088;50.240;2.696;2023-04-22T03:39:54;11.45;;;8.63;;
73776;SDS011;62088;50.240;2.696;2023-04-22T03:42:22;18.92;;;9.88;;
73776;SDS011;62088;50.240;2.696;2023-04-22T03:44:49;16.90;;;10.18;;
73776;SDS011;62088;50.240;2.696;2023-04-22T03:47:21;13.60;;;8.15;;
73776;SDS011;62088;50.240;2.696;2023-04-22T03:49:54;16.02;;;10.90;;
73776;SDS011;62088;50.240;2.696;2023-04-22T03:52:21;18.10;;;13.02;;
73776;SDS011;62088;50.240;2.696;2023-04-22T03:54:55;14.77;;;8.68;;
73776;SDS011;62088;50.240;2.696;2023-04-22T03:57:22;15.60;;;9.05;;
73776;SDS011;62088;50.240;2.696;2023-04-22T03:59:50;15.40;;;11.88;;
73776;SDS011;62088;50.240;2.696;2023-04-22T04:02:17;18.58;;;9.90;;
73776;SDS011;62088;50.240;2.696;2023-04-22T04:04:44;18.27;;;10.38;;
73776;SDS011;62088;50.240;2.696;2023-04-22T04:07:12;21.20;;;10.88;;
73776;SDS011;62088;50.240;2.696;2023-04-22T04:09:40;23.67;;;15.27;;
73776;SDS011;62088;50.240;2.696;2023-04-22T04:12:08;23.83;;;13.02;;
73776;SDS011;62088;50.240;2.696;2023-04-22T04:14:40;19.90;;;12.88;;
73776;SDS011;62088;50.240;2.696;2023-04-22T04:17:09;23.85;;;12.52;;
73776;SDS011;62088;50.240;2.696;2023-04-22T04:19:39;33.20;;;21.25;;
73776;SDS011;62088;50.240;2.696;2023-04-22T04:22:07;21.77;;;12.60;;
73776;SDS011;62088;50.240;2.696;2023-04-22T04:24:44;20.42;;;13.32;;
73776;SDS011;62088;50.240;2.696;2023-04-22T04:27:17;35.17;;;24.35;;
73776;SDS011;62088;50.240;2.696;2023-04-22T04:29:50;27.70;;;15.57;;
73776;SDS011;62088;50.240;2.696;2023-04-22T04:32:36;35.78;;;25.05;;
73776;SDS011;62088;50.240;2.696;2023-04-22T04:35:06;23.23;;;12.05;;
73776;SDS011;62088;50.240;2.696;2023-04-22T04:37:35;20.90;;;12.48;;
73776;SDS011;62088;50.240;2.696;2023-04-22T04:40:06;18.95;;;12.43;;
73776;SDS011;62088;50.240;2.696;2023-04-22T04:42:49;19.13;;;11.15;;
73776;SDS011;62088;50.240;2.696;2023-04-22T04:45:22;32.45;;;23.92;;
73776;SDS011;62088;50.240;2.696;2023-04-22T04:47:51;23.30;;;12.38;;
73776;SDS011;62088;50.240;2.696;2023-04-22T04:50:22;19.10;;;10.82;;
73776;SDS011;62088;50.240;2.696;2023-04-22T04:52:49;29.08;;;17.92;;
73776;SDS011;62088;50.240;2.696;2023-04-22T04:55:23;18.88;;;11.68;;
73776;SDS011;62088;50.240;2.696;2023-04-22T04:57:51;20.58;;;12.40;;
73776;SDS011;62088;50.240;2.696;2023-04-22T05:00:18;19.73;;;11.07;;
73776;SDS011;62088;50.240;2.696;2023-04-22T05:02:45;23.23;;;14.65;;
73776;SDS011;62088;50.240;2.696;2023-04-22T05:05:12;17.42;;;10.50;;
73776;SDS011;62088;50.240;2.696;2023-04-22T05:07:41;22.13;;;16.10;;
73776;SDS011;62088;50.240;2.696;2023-04-22T05:10:10;23.55;;;13.60;;
73776;SDS011;62088;50.240;2.696;2023-04-22T05:12:38;20.92;;;12.90;;
73776;SDS011;62088;50.240;2.696;2023-04-22T05:15:09;26.98;;;21.55;;
73776;SDS011;62088;50.240;2.696;2023-04-22T05:17:37;28.58;;;22.65;;
73776;SDS011;62088;50.240;2.696;2023-04-22T05:20:04;18.25;;;11.60;;
73776;SDS011;62088;50.240;2.696;2023-04-22T05:22:33;19.92;;;12.52;;
73776;SDS011;62088;50.240;2.696;2023-04-22T05:25:02;23.33;;;10.30;;
73776;SDS011;62088;50.240;2.696;2023-04-22T05:27:29;25.80;;;22.58;;
73776;SDS011;62088;50.240;2.696;2023-04-22T05:29:56;21.35;;;11.85;;
73776;SDS011;62088;50.240;2.696;2023-04-22T05:32:28;20.05;;;12.48;;
73776;SDS011;62088;50.240;2.696;2023-04-22T05:34:55;25.52;;;22.30;;
73776;SDS011;62088;50.240;2.696;2023-04-22T05:37:22;19.77;;;13.63;;
73776;SDS011;62088;50.240;2.696;2023-04-22T05:39:50;19.38;;;11.93;;
73776;SDS011;62088;50.240;2.696;2023-04-22T05:42:17;23.98;;;20.98;;
73776;SDS011;62088;50.240;2.696;2023-04-22T05:44:44;20.38;;;13.75;;
73776;SDS011;62088;50.240;2.696;2023-04-22T05:47:11;23.42;;;14.93;;
73776;SDS011;62088;50.240;2.696;2023-04-22T05:49:39;26.23;;;20.80;;
73776;SDS011;62088;50.240;2.696;2023-04-22T05:52:12;19.30;;;11.02;;
73776;SDS011;62088;50.240;2.696;2023-04-22T05:54:54;16.67;;;11.57;;
73776;SDS011;62088;50.240;2.696;2023-04-22T05:57:21;27.52;;;22.13;;
73776;SDS011;62088;50.240;2.696;2023-04-22T05:59:49;23.77;;;20.48;;
73776;SDS011;62088;50.240;2.696;2023-04-22T06:02:16;15.05;;;10.48;;
73776;SDS011;62088;50.240;2.696;2023-04-22T06:04:44;17.67;;;11.93;;
73776;SDS011;62088;50.240;2.696;2023-04-22T06:07:12;25.20;;;21.80;;
73776;SDS011;62088;50.240;2.696;2023-04-22T06:09:39;15.82;;;11.88;;
73776;SDS011;62088;50.240;2.696;2023-04-22T06:12:06;18.55;;;12.20;;
73776;SDS011;62088;50.240;2.696;2023-04-22T06:14:34;18.20;;;13.50;;
73776;SDS011;62088;50.240;2.696;2023-04-22T06:17:01;18.58;;;15.00;;
73776;SDS011;62088;50.240;2.696;2023-04-22T06:19:28;21.80;;;15.82;;
73776;SDS011;62088;50.240;2.696;2023-04-22T06:21:56;20.25;;;14.52;;
73776;SDS011;62088;50.240;2.696;2023-04-22T06:24:23;27.83;;;23.50;;
73776;SDS011;62088;50.240;2.696;2023-04-22T06:26:50;24.05;;;15.82;;
73776;SDS011;62088;50.240;2.696;2023-04-22T06:29:17;23.83;;;15.90;;
73776;SDS011;62088;50.240;2.696;2023-04-22T06:31:44;27.23;;;18.48;;
73776;SDS011;62088;50.240;2.696;2023-04-22T06:34:11;20.00;;;14.48;;
73776;SDS011;62088;50.240;2.696;2023-04-22T06:36:38;22.85;;;16.65;;
73776;SDS011;62088;50.240;2.696;2023-04-22T06:39:05;27.48;;;22.85;;
73776;SDS011;62088;50.240;2.696;2023-04-22T06:41:41;22.58;;;17.73;;
73776;SDS011;62088;50.240;2.696;2023-04-22T06:44:38;30.10;;;24.75;;
73776;SDS011;62088;50.240;2.696;2023-04-22T06:47:14;28.30;;;24.05;;
73776;SDS011;62088;50.240;2.696;2023-04-22T06:49:49;19.80;;;14.50;;
73776;SDS011;62088;50.240;2.696;2023-04-22T06:52:36;27.90;;;24.88;;
73776;SDS011;62088;50.240;2.696;2023-04-22T06:55:04;22.13;;;13.77;;
73776;SDS011;62088;50.240;2.696;2023-04-22T06:57:31;26.98;;;24.17;;
73776;SDS011;62088;50.240;2.696;2023-04-22T06:59:58;20.98;;;15.98;;
73776;SDS011;62088;50.240;2.696;2023-04-22T07:02:26;29.02;;;25.90;;
73776;SDS011;62088;50.240;2.696;2023-04-22T07:04:53;20.25;;;13.85;;
73776;SDS011;62088;50.240;2.696;2023-04-22T07:07:20;28.92;;;25.83;;
73776;SDS011;62088;50.240;2.696;2023-04-22T07:09:47;22.85;;;14.98;;
73776;SDS011;62088;50.240;2.696;2023-04-22T07:12:14;24.45;;;17.90;;
73776;SDS011;62088;50.240;2.696;2023-04-22T07:14:44;24.77;;;18.50;;
73776;SDS011;62088;50.240;2.696;2023-04-22T07:17:12;29.90;;;26.48;;
73776;SDS011;62088;50.240;2.696;2023-04-22T07:19:39;30.83;;;26.52;;
73776;SDS011;62088;50.240;2.696;2023-04-22T07:22:07;18.13;;;13.88;;
73776;SDS011;62088;50.240;2.696;2023-04-22T07:24:34;30.15;;;26.88;;
73776;SDS011;62088;50.240;2.696;2023-04-22T07:27:01;31.10;;;27.80;;
73776;SDS011;62088;50.240;2.696;2023-04-22T07:29:28;31.35;;;24.98;;
73776;SDS011;62088;50.240;2.696;2023-04-22T07:31:55;23.60;;;15.48;;
73776;SDS011;62088;50.240;2.696;2023-04-22T07:34:23;31.58;;;26.65;;
73776;SDS011;62088;50.240;2.696;2023-04-22T07:36:50;23.88;;;17.85;;
73776;SDS011;62088;50.240;2.696;2023-04-22T07:39:17;27.40;;;24.42;;
73776;SDS011;62088;50.240;2.696;2023-04-22T07:41:45;21.85;;;15.88;;
73776;SDS011;62088;50.240;2.696;2023-04-22T07:44:12;22.38;;;16.27;;
73776;SDS011;62088;50.240;2.696;2023-04-22T07:46:42;27.75;;;24.50;;
73776;SDS011;62088;50.240;2.696;2023-04-22T07:49:09;31.58;;;26.20;;
73776;SDS011;62088;50.240;2.696;2023-04-22T07:51:39;29.50;;;25.58;;
73776;SDS011;62088;50.240;2.696;2023-04-22T07:54:06;25.33;;;18.95;;
73776;SDS011;62088;50.240;2.696;2023-04-22T07:56:33;29.85;;;26.02;;
73776;SDS011;62088;50.240;2.696;2023-04-22T07:59:01;34.75;;;27.73;;
73776;SDS011;62088;50.240;2.696;2023-04-22T08:01:28;33.65;;;29.08;;
73776;SDS011;62088;50.240;2.696;2023-04-22T08:03:55;31.92;;;28.42;;
73776;SDS011;62088;50.240;2.696;2023-04-22T08:06:23;30.02;;;25.95;;
73776;SDS011;62088;50.240;2.696;2023-04-22T08:08:50;29.02;;;17.98;;
73776;SDS011;62088;50.240;2.696;2023-04-22T08:11:17;31.05;;;24.88;;
73776;SDS011;62088;50.240;2.696;2023-04-22T08:13:44;33.53;;;27.38;;
73776;SDS011;62088;50.240;2.696;2023-04-22T08:16:11;24.83;;;16.23;;
73776;SDS011;62088;50.240;2.696;2023-04-22T08:18:38;26.60;;;20.42;;
73776;SDS011;62088;50.240;2.696;2023-04-22T08:21:06;25.45;;;17.75;;
73776;SDS011;62088;50.240;2.696;2023-04-22T08:23:33;21.60;;;15.20;;
73776;SDS011;62088;50.240;2.696;2023-04-22T08:26:00;29.15;;;24.55;;
73776;SDS011;62088;50.240;2.696;2023-04-22T08:28:28;34.92;;;30.60;;
73776;SDS011;62088;50.240;2.696;2023-04-22T08:30:55;22.95;;;16.00;;
73776;SDS011;62088;50.240;2.696;2023-04-22T08:33:22;34.15;;;28.92;;
73776;SDS011;62088;50.240;2.696;2023-04-22T08:35:52;37.28;;;30.52;;
73776;SDS011;62088;50.240;2.696;2023-04-22T08:38:19;35.03;;;29.88;;
73776;SDS011;62088;50.240;2.696;2023-04-22T08:40:46;24.63;;;16.95;;
73776;SDS011;62088;50.240;2.696;2023-04-22T08:43:13;34.70;;;28.33;;
73776;SDS011;62088;50.240;2.696;2023-04-22T08:45:41;31.13;;;25.92;;
73776;SDS011;62088;50.240;2.696;2023-04-22T08:48:10;31.30;;;27.13;;
73776;SDS011;62088;50.240;2.696;2023-04-22T08:50:39;29.15;;;25.48;;
73776;SDS011;62088;50.240;2.696;2023-04-22T08:53:07;29.30;;;25.33;;
73776;SDS011;62088;50.240;2.696;2023-04-22T08:55:34;30.42;;;25.38;;
73776;SDS011;62088;50.240;2.696;2023-04-22T08:58:02;29.63;;;25.33;;
73776;SDS011;62088;50.240;2.696;2023-04-22T09:00:32;31.42;;;25.48;;
73776;SDS011;62088;50.240;2.696;2023-04-22T09:03:00;29.05;;;24.55;;
73776;SDS011;62088;50.240;2.696;2023-04-22T09:05:29;29.08;;;25.10;;
73776;SDS011;62088;50.240;2.696;2023-04-22T09:07:59;30.60;;;25.40;;
73776;SDS011;62088;50.240;2.696;2023-04-22T09:10:28;30.00;;;26.67;;
73776;SDS011;62088;50.240;2.696;2023-04-22T09:12:57;27.90;;;24.20;;
73776;SDS011;62088;50.240;2.696;2023-04-22T09:15:25;30.08;;;26.45;;
73776;SDS011;62088;50.240;2.696;2023-04-22T09:17:53;30.90;;;27.15;;
73776;SDS011;62088;50.240;2.696;2023-04-22T09:20:24;28.63;;;25.55;;
73776;SDS011;62088;50.240;2.696;2023-04-22T09:22:53;30.48;;;26.65;;
73776;SDS011;62088;50.240;2.696;2023-04-22T09:25:22;29.10;;;24.85;;
73776;SDS011;62088;50.240;2.696;2023-04-22T09:27:52;27.45;;;23.95;;
73776;SDS011;62088;50.240;2.696;2023-04-22T09:30:28;30.33;;;26.55;;
73776;SDS011;62088;50.240;2.696;2023-04-22T09:33:00;32.92;;;26.42;;
73776;SDS011;62088;50.240;2.696;2023-04-22T09:35:30;31.33;;;27.65;;
73776;SDS011;62088;50.240;2.696;2023-04-22T09:37:59;50.20;;;34.83;;
73776;SDS011;62088;50.240;2.696;2023-04-22T09:40:28;37.58;;;29.92;;
73776;SDS011;62088;50.240;2.696;2023-04-22T09:43:00;32.22;;;26.23;;
73776;SDS011;62088;50.240;2.696;2023-04-22T09:45:35;29.33;;;24.02;;
73776;SDS011;62088;50.240;2.696;2023-04-22T09:48:08;30.17;;;24.88;;
73776;SDS011;62088;50.240;2.696;2023-04-22T09:50:38;31.50;;;26.70;;
73776;SDS011;62088;50.240;2.696;2023-04-22T09:53:07;28.38;;;24.25;;
73776;SDS011;62088;50.240;2.696;2023-04-22T09:55:37;24.73;;;15.45;;
73776;SDS011;62088;50.240;2.696;2023-04-22T09:58:08;26.48;;;23.42;;
73776;SDS011;62088;50.240;2.696;2023-04-22T10:00:38;28.10;;;23.65;;
73776;SDS011;62088;50.240;2.696;2023-04-22T10:03:16;30.80;;;24.13;;
73776;SDS011;62088;50.240;2.696;2023-04-22T10:05:44;26.10;;;21.73;;
73776;SDS011;62088;50.240;2.696;2023-04-22T10:08:12;23.90;;;21.08;;
73776;SDS011;62088;50.240;2.696;2023-04-22T10:10:41;26.13;;;22.15;;
73776;SDS011;62088;50.240;2.696;2023-04-22T10:13:09;22.63;;;20.20;;
73776;SDS011;62088;50.240;2.696;2023-04-22T10:15:51;22.90;;;20.50;;
73776;SDS011;62088;50.240;2.696;2023-04-22T10:18:24;22.90;;;18.98;;
73776;SDS011;62088;50.240;2.696;2023-04-22T10:20:54;21.35;;;17.75;;
73776;SDS011;62088;50.240;2.696;2023-04-22T10:23:23;23.80;;;19.35;;
73776;SDS011;62088;50.240;2.696;2023-04-22T10:25:54;19.98;;;16.45;;
73776;SDS011;62088;50.240;2.696;2023-04-22T10:28:22;16.38;;;14.57;;
73776;SDS011;62088;50.240;2.696;2023-04-22T10:30:50;17.77;;;14.90;;
73776;SDS011;62088;50.240;2.696;2023-04-22T10:41:23;17.98;;;14.73;;
73776;SDS011;62088;50.240;2.696;2023-04-22T10:43:55;16.60;;;14.73;;
73776;SDS011;62088;50.240;2.696;2023-04-22T10:48:58;16.92;;;15.13;;
73776;SDS011;62088;50.240;2.696;2023-04-22T10:59:30;18.30;;;15.00;;
73776;SDS011;62088;50.240;2.696;2023-04-22T11:02:05;16.83;;;14.00;;
73776;SDS011;62088;50.240;2.696;2023-04-22T11:04:33;15.02;;;13.20;;
73776;SDS011;62088;50.240;2.696;2023-04-22T11:15:07;14.32;;;11.98;;
73776;SDS011;62088;50.240;2.696;2023-04-22T11:17:46;16.90;;;12.63;;
73776;SDS011;62088;50.240;2.696;2023-04-22T11:20:16;15.63;;;12.00;;
73776;SDS011;62088;50.240;2.696;2023-04-22T11:22:47;13.23;;;11.68;;
73776;SDS011;62088;50.240;2.696;2023-04-22T11:25:19;16.70;;;13.20;;
73776;SDS011;62088;50.240;2.696;2023-04-22T11:27:46;14.13;;;12.63;;
73776;SDS011;62088;50.240;2.696;2023-04-22T11:30:20;12.88;;;11.48;;
73776;SDS011;62088;50.240;2.696;2023-04-22T11:32:49;14.93;;;12.80;;
73776;SDS011;62088;50.240;2.696;2023-04-22T11:35:18;14.35;;;12.85;;
73776;SDS011;62088;50.240;2.696;2023-04-22T11:37:53;15.63;;;13.05;;
73776;SDS011;62088;50.240;2.696;2023-04-22T11:40:23;14.90;;;12.10;;
73776;SDS011;62088;50.240;2.696;2023-04-22T11:43:04;14.00;;;11.40;;
73776;SDS011;62088;50.240;2.696;2023-04-22T11:45:33;15.07;;;12.02;;
73776;SDS011;62088;50.240;2.696;2023-04-22T11:48:03;13.35;;;11.70;;
73776;SDS011;62088;50.240;2.696;2023-04-22T11:50:32;13.88;;;12.38;;
73776;SDS011;62088;50.240;2.696;2023-04-22T11:53:02;13.45;;;11.98;;
73776;SDS011;62088;50.240;2.696;2023-04-22T11:55:38;13.32;;;11.00;;
73776;SDS011;62088;50.240;2.696;2023-04-22T11:58:07;14.43;;;12.65;;
73776;SDS011;62088;50.240;2.696;2023-04-22T12:00:42;14.57;;;12.15;;
73776;SDS011;62088;50.240;2.696;2023-04-22T12:03:17;13.55;;;11.80;;
73776;SDS011;62088;50.240;2.696;2023-04-22T12:08:23;13.90;;;10.52;;
73776;SDS011;62088;50.240;2.696;2023-04-22T12:10:52;11.60;;;10.40;;
73776;SDS011;62088;50.240;2.696;2023-04-22T12:13:25;12.88;;;11.07;;
73776;SDS011;62088;50.240;2.696;2023-04-22T12:15:59;13.02;;;11.60;;
73776;SDS011;62088;50.240;2.696;2023-04-22T12:18:31;15.88;;;12.32;;
73776;SDS011;62088;50.240;2.696;2023-04-22T12:23:29;16.70;;;13.60;;
73776;SDS011;62088;50.240;2.696;2023-04-22T12:26:10;16.23;;;13.73;;
73776;SDS011;62088;50.240;2.696;2023-04-22T12:28:38;15.38;;;13.65;;
73776;SDS011;62088;50.240;2.696;2023-04-22T12:31:06;16.08;;;14.38;;
73776;SDS011;62088;50.240;2.696;2023-04-22T12:33:34;16.13;;;14.40;;
73776;SDS011;62088;50.240;2.696;2023-04-22T12:36:03;19.50;;;15.48;;
73776;SDS011;62088;50.240;2.696;2023-04-22T12:38:31;16.70;;;14.93;;
73776;SDS011;62088;50.240;2.696;2023-04-22T12:40:58;16.42;;;13.95;;
73776;SDS011;62088;50.240;2.696;2023-04-22T12:43:26;17.23;;;14.43;;
73776;SDS011;62088;50.240;2.696;2023-04-22T12:45:53;15.88;;;13.68;;
73776;SDS011;62088;50.240;2.696;2023-04-22T12:48:20;17.13;;;14.57;;
73776;SDS011;62088;50.240;2.696;2023-04-22T12:50:47;18.52;;;14.50;;
73776;SDS011;62088;50.240;2.696;2023-04-22T12:53:14;14.57;;;12.63;;
73776;SDS011;62088;50.240;2.696;2023-04-22T12:55:42;15.13;;;13.00;;
73776;SDS011;62088;50.240;2.696;2023-04-22T12:58:11;14.63;;;11.70;;
73776;SDS011;62088;50.240;2.696;2023-04-22T13:00:38;13.70;;;12.25;;
73776;SDS011;62088;50.240;2.696;2023-04-22T13:03:06;14.52;;;12.82;;
73776;SDS011;62088;50.240;2.696;2023-04-22T13:05:33;14.18;;;12.15;;
73776;SDS011;62088;50.240;2.696;2023-04-22T13:08:00;16.00;;;12.40;;
73776;SDS011;62088;50.240;2.696;2023-04-22T13:10:33;12.45;;;10.88;;
73776;SDS011;62088;50.240;2.696;2023-04-22T13:13:01;13.35;;;10.75;;
73776;SDS011;62088;50.240;2.696;2023-04-22T13:15:36;13.40;;;11.55;;
73776;SDS011;62088;50.240;2.696;2023-04-22T13:18:04;12.85;;;11.45;;
73776;SDS011;62088;50.240;2.696;2023-04-22T13:20:31;13.70;;;11.68;;
73776;SDS011;62088;50.240;2.696;2023-04-22T13:22:58;13.65;;;11.50;;
73776;SDS011;62088;50.240;2.696;2023-04-22T13:25:27;11.70;;;9.85;;
73776;SDS011;62088;50.240;2.696;2023-04-22T13:27:54;12.20;;;10.02;;
73776;SDS011;62088;50.240;2.696;2023-04-22T13:30:21;10.85;;;9.38;;
73776;SDS011;62088;50.240;2.696;2023-04-22T13:32:48;12.82;;;10.38;;
73776;SDS011;62088;50.240;2.696;2023-04-22T13:35:15;16.75;;;10.48;;
73776;SDS011;62088;50.240;2.696;2023-04-22T13:37:43;12.13;;;9.85;;
73776;SDS011;62088;50.240;2.696;2023-04-22T13:40:11;12.70;;;10.30;;
73776;SDS011;62088;50.240;2.696;2023-04-22T13:42:38;11.45;;;9.80;;
73776;SDS011;62088;50.240;2.696;2023-04-22T13:45:06;12.07;;;10.30;;
73776;SDS011;62088;50.240;2.696;2023-04-22T13:47:33;10.88;;;9.43;;
73776;SDS011;62088;50.240;2.696;2023-04-22T13:50:00;11.60;;;9.18;;
73776;SDS011;62088;50.240;2.696;2023-04-22T13:52:27;12.23;;;10.38;;
73776;SDS011;62088;50.240;2.696;2023-04-22T13:54:55;10.68;;;8.82;;
73776;SDS011;62088;50.240;2.696;2023-04-22T13:57:22;11.60;;;9.73;;
73776;SDS011;62088;50.240;2.696;2023-04-22T13:59:49;11.30;;;9.60;;
73776;SDS011;62088;50.240;2.696;2023-04-22T14:02:16;12.30;;;9.35;;
73776;SDS011;62088;50.240;2.696;2023-04-22T14:04:43;10.57;;;8.60;;
73776;SDS011;62088;50.240;2.696;2023-04-22T14:07:10;10.20;;;8.48;;
73776;SDS011;62088;50.240;2.696;2023-04-22T14:09:38;11.77;;;8.63;;
73776;SDS011;62088;50.240;2.696;2023-04-22T14:12:05;12.65;;;9.40;;
73776;SDS011;62088;50.240;2.696;2023-04-22T14:14:33;9.65;;;7.93;;
73776;SDS011;62088;50.240;2.696;2023-04-22T14:17:00;9.50;;;7.63;;
73776;SDS011;62088;50.240;2.696;2023-04-22T14:19:28;9.55;;;7.95;;
73776;SDS011;62088;50.240;2.696;2023-04-22T14:21:56;9.60;;;7.80;;
73776;SDS011;62088;50.240;2.696;2023-04-22T14:24:23;9.68;;;7.85;;
73776;SDS011;62088;50.240;2.696;2023-04-22T14:26:51;9.07;;;7.28;;
73776;SDS011;62088;50.240;2.696;2023-04-22T14:29:19;9.82;;;7.47;;
73776;SDS011;62088;50.240;2.696;2023-04-22T14:31:46;9.07;;;7.65;;
73776;SDS011;62088;50.240;2.696;2023-04-22T14:34:15;9.50;;;7.30;;
73776;SDS011;62088;50.240;2.696;2023-04-22T14:36:42;7.63;;;6.45;;
73776;SDS011;62088;50.240;2.696;2023-04-22T14:39:09;10.43;;;6.93;;
73776;SDS011;62088;50.240;2.696;2023-04-22T14:41:37;8.85;;;6.65;;
73776;SDS011;62088;50.240;2.696;2023-04-22T14:44:04;7.75;;;6.60;;
73776;SDS011;62088;50.240;2.696;2023-04-22T14:46:31;8.05;;;6.47;;
73776;SDS011;62088;50.240;2.696;2023-04-22T14:48:58;9.65;;;7.10;;
73776;SDS011;62088;50.240;2.696;2023-04-22T14:51:26;6.82;;;5.30;;
73776;SDS011;62088;50.240;2.696;2023-04-22T14:53:54;8.50;;;6.43;;
73776;SDS011;62088;50.240;2.696;2023-04-22T14:56:21;7.40;;;6.35;;
73776;SDS011;62088;50.240;2.696;2023-04-22T14:58:49;7.45;;;6.28;;
73776;SDS011;62088;50.240;2.696;2023-04-22T15:01:16;7.20;;;5.95;;
73776;SDS011;62088;50.240;2.696;2023-04-22T15:03:44;9.25;;;6.25;;
73776;SDS011;62088;50.240;2.696;2023-04-22T15:06:11;8.75;;;6.60;;